Time;durP1;ratioP1;P1;durP2;ratioP2;P2;SDS_P1;SDS_P2;PMS_P1;PMS_P2;Temp;Humidity;BMP_temperature;BMP_pressure;BME280_temperature;BME280_humidity;BME280_pressure;Samples;Min_cycle;Max_cycle;Signal;HPM_P1;HPM_P2
2023/08/15 00:00:36;;;;;;;6.72;3.78;;;;;;;;;;4988162;28;98245;-70
2023/08/15 00:03:03;;;;;;;6.88;4.20;;;;;;;;;;4989049;28;99634;-70
2023/08/15 00:05:30;;;;;;;10.68;4.70;;;;;;;;;;4988395;28;100067;-71
2023/08/15 00:07:59;;;;;;;11.52;4.30;;;;;;;;;;4988184;28;98677;-71
2023/08/15 00:10:25;;;;;;;6.85;4.40;;;;;;;;;;4991445;28;98573;-71
2023/08/15 00:12:52;;;;;;;5.38;4.40;;;;;;;;;;4988864;28;98231;-71
2023/08/15 00:15:18;;;;;;;7.38;3.97;;;;;;;;;;4988142;28;98728;-70
2023/08/15 00:17:45;;;;;;;9.32;3.80;;;;;;;;;;4989672;28;99210;-70
2023/08/15 00:20:12;;;;;;;4.57;3.47;;;;;;;;;;4988935;28;98606;-72
2023/08/15 00:22:38;;;;;;;4.88;3.50;;;;;;;;;;4992587;28;99279;-71
2023/08/15 00:25:05;;;;;;;11.18;4.25;;;;;;;;;;5000474;28;100016;-70
2023/08/15 00:27:32;;;;;;;6.55;3.72;;;;;;;;;;4988485;28;97944;-70
2023/08/15 00:29:58;;;;;;;9.15;4.88;;;;;;;;;;4988325;28;98807;-71
2023/08/15 00:32:31;;;;;;;6.57;4.00;;;;;;;;;;4990254;28;98924;-70
2023/08/15 00:34:57;;;;;;;5.63;4.13;;;;;;;;;;4987485;28;101152;-70
2023/08/15 00:37:23;;;;;;;9.50;4.72;;;;;;;;;;4987575;28;98880;-70
2023/08/15 00:39:50;;;;;;;8.90;3.90;;;;;;;;;;4988564;28;98299;-71
2023/08/15 00:42:18;;;;;;;11.63;4.18;;;;;;;;;;4990098;28;98417;-69
2023/08/15 00:44:44;;;;;;;6.43;4.00;;;;;;;;;;4987703;28;99120;-70
2023/08/15 00:47:11;;;;;;;5.20;3.58;;;;;;;;;;4989729;28;98262;-71
2023/08/15 00:49:37;;;;;;;5.30;3.72;;;;;;;;;;4991689;28;98483;-72
2023/08/15 00:52:04;;;;;;;9.32;3.50;;;;;;;;;;4992284;28;99360;-71
2023/08/15 00:54:31;;;;;;;10.18;4.05;;;;;;;;;;4974065;28;98454;-71
2023/08/15 00:56:58;;;;;;;8.02;3.55;;;;;;;;;;4969718;28;99189;-71
2023/08/15 00:59:24;;;;;;;7.90;3.88;;;;;;;;;;4970327;28;98328;-71
2023/08/15 01:01:51;;;;;;;10.77;3.55;;;;;;;;;;4971942;28;98991;-70
2023/08/15 01:04:17;;;;;;;7.50;3.60;;;;;;;;;;4970799;28;98794;-72
2023/08/15 01:06:44;;;;;;;4.65;2.70;;;;;;;;;;4972394;28;98688;-70
2023/08/15 01:09:12;;;;;;;12.52;3.70;;;;;;;;;;4989583;28;99410;-71
2023/08/15 01:11:53;;;;;;;5.35;3.20;;;;;;;;;;4990940;28;98920;-71
2023/08/15 01:14:21;;;;;;;3.95;3.40;;;;;;;;;;4990361;28;98181;-70
2023/08/15 01:16:49;;;;;;;5.43;3.03;;;;;;;;;;4994889;28;99812;-70
2023/08/15 01:19:21;;;;;;;5.60;2.80;;;;;;;;;;4991043;28;98219;-71
2023/08/15 01:21:48;;;;;;;8.73;2.72;;;;;;;;;;4991985;28;98750;-71
2023/08/15 01:24:16;;;;;;;5.68;2.13;;;;;;;;;;5006681;28;100806;-70
2023/08/15 01:26:44;;;;;;;6.95;2.53;;;;;;;;;;4995614;28;98210;-71
2023/08/15 01:29:10;;;;;;;4.95;2.35;;;;;;;;;;4991376;28;98429;-70
2023/08/15 01:31:43;;;;;;;7.18;2.35;;;;;;;;;;4991482;28;98803;-69
2023/08/15 01:34:18;;;;;;;3.63;1.85;;;;;;;;;;4990823;28;97932;-70
2023/08/15 01:36:47;;;;;;;2.63;1.67;;;;;;;;;;4993084;28;99439;-72
2023/08/15 01:39:17;;;;;;;4.55;1.95;;;;;;;;;;4988121;28;98645;-70
2023/08/15 01:41:45;;;;;;;6.22;2.05;;;;;;;;;;4991426;28;98530;-70
2023/08/15 01:44:13;;;;;;;3.88;1.63;;;;;;;;;;4980430;28;99330;-70
2023/08/15 01:46:39;;;;;;;7.10;1.60;;;;;;;;;;4969629;28;98253;-70
2023/08/15 01:49:06;;;;;;;4.97;2.03;;;;;;;;;;4971798;28;98855;-70
2023/08/15 01:51:32;;;;;;;6.88;1.90;;;;;;;;;;4971174;28;98786;-71
2023/08/15 01:53:58;;;;;;;3.67;1.73;;;;;;;;;;4994033;28;98187;-71
2023/08/15 01:56:25;;;;;;;9.75;2.13;;;;;;;;;;5011177;28;98402;-70
2023/08/15 01:58:51;;;;;;;5.47;1.95;;;;;;;;;;5011459;28;100150;-71
2023/08/15 02:01:18;;;;;;;3.33;1.77;;;;;;;;;;5009892;28;98638;-70
2023/08/15 02:03:44;;;;;;;6.80;1.80;;;;;;;;;;5009304;28;98952;-70
2023/08/15 02:06:11;;;;;;;2.58;1.40;;;;;;;;;;5010638;28;98196;-70
2023/08/15 02:08:38;;;;;;;3.97;1.85;;;;;;;;;;5007876;28;101249;-69
2023/08/15 02:11:05;;;;;;;11.43;1.95;;;;;;;;;;5008459;28;99888;-70
2023/08/15 02:13:33;;;;;;;5.70;1.75;;;;;;;;;;5010228;28;98336;-71
2023/08/15 02:16:00;;;;;;;4.88;1.65;;;;;;;;;;5009331;28;98734;-70
2023/08/15 02:18:28;;;;;;;4.80;1.95;;;;;;;;;;5009310;28;101524;-70
2023/08/15 02:20:54;;;;;;;5.13;2.03;;;;;;;;;;5014510;28;98191;-70
2023/08/15 02:23:21;;;;;;;5.00;1.75;;;;;;;;;;5009243;28;99700;-71
2023/08/15 02:25:48;;;;;;;5.25;2.00;;;;;;;;;;5002779;28;98532;-70
2023/08/15 02:28:17;;;;;;;6.15;1.63;;;;;;;;;;4988204;28;98480;-70
2023/08/15 02:30:43;;;;;;;7.80;1.70;;;;;;;;;;4990269;28;99104;-71
2023/08/15 02:33:09;;;;;;;6.13;1.75;;;;;;;;;;4989078;28;98231;-71
2023/08/15 02:35:40;;;;;;;3.38;2.03;;;;;;;;;;4988114;28;101121;-70
2023/08/15 02:38:07;;;;;;;6.78;2.08;;;;;;;;;;4990243;28;99085;-71
2023/08/15 02:40:36;;;;;;;7.22;1.98;;;;;;;;;;4989952;28;98212;-71
2023/08/15 02:43:03;;;;;;;4.28;2.05;;;;;;;;;;4992757;28;98741;-69
2023/08/15 02:45:30;;;;;;;4.55;2.03;;;;;;;;;;4990297;28;98145;-71
2023/08/15 02:47:56;;;;;;;6.40;1.90;;;;;;;;;;4990680;28;98926;-71
2023/08/15 02:50:22;;;;;;;1.85;1.50;;;;;;;;;;4989863;28;99343;-71
2023/08/15 02:52:49;;;;;;;9.30;1.73;;;;;;;;;;4992106;28;98187;-71
2023/08/15 02:55:15;;;;;;;3.47;2.13;;;;;;;;;;5004346;28;98199;-70
2023/08/15 02:57:42;;;;;;;4.22;2.00;;;;;;;;;;4989150;28;99322;-70
2023/08/15 03:00:09;;;;;;;5.32;2.03;;;;;;;;;;4989797;28;98177;-70
2023/08/15 03:02:36;;;;;;;9.63;1.88;;;;;;;;;;4988245;28;99713;-71
2023/08/15 03:05:03;;;;;;;4.13;1.65;;;;;;;;;;4990598;28;99050;-71
2023/08/15 03:07:29;;;;;;;7.30;1.73;;;;;;;;;;4989969;28;99593;-71
2023/08/15 03:09:56;;;;;;;3.20;1.75;;;;;;;;;;4988611;28;98783;-70
2023/08/15 03:12:22;;;;;;;4.68;1.70;;;;;;;;;;4987449;28;98436;-69
2023/08/15 03:14:49;;;;;;;5.93;2.42;;;;;;;;;;4989601;28;98601;-69
2023/08/15 03:17:18;;;;;;;5.20;2.00;;;;;;;;;;4987449;28;101221;-70
2023/08/15 03:19:46;;;;;;;9.00;2.15;;;;;;;;;;4988053;28;98293;-71
2023/08/15 03:22:12;;;;;;;5.38;2.22;;;;;;;;;;4989917;28;98524;-69
2023/08/15 03:24:39;;;;;;;7.13;1.80;;;;;;;;;;5003487;28;98953;-70
2023/08/15 03:27:05;;;;;;;4.68;2.13;;;;;;;;;;5013203;28;98070;-70
2023/08/15 03:29:34;;;;;;;3.90;1.83;;;;;;;;;;5007495;28;100948;-71
2023/08/15 03:32:01;;;;;;;4.53;2.35;;;;;;;;;;5007026;28;98464;-70
2023/08/15 03:34:33;;;;;;;6.47;2.20;;;;;;;;;;5008092;28;101181;-71
2023/08/15 03:36:59;;;;;;;7.85;2.53;;;;;;;;;;5007964;28;101477;-71
2023/08/15 03:39:25;;;;;;;8.85;2.47;;;;;;;;;;5007014;28;98244;-70
2023/08/15 03:41:52;;;;;;;7.75;2.45;;;;;;;;;;5007595;28;98336;-72
2023/08/15 03:44:19;;;;;;;4.22;2.10;;;;;;;;;;4996712;28;101910;-70
2023/08/15 03:46:47;;;;;;;6.18;2.15;;;;;;;;;;5010961;27;99436;-71
2023/08/15 03:49:14;;;;;;;9.88;2.30;;;;;;;;;;5021020;27;101717;-70
2023/08/15 03:51:41;;;;;;;7.15;2.40;;;;;;;;;;4989810;28;98240;-69
2023/08/15 03:54:14;;;;;;;6.28;2.10;;;;;;;;;;4987120;28;98327;-71
2023/08/15 03:56:41;;;;;;;8.57;2.22;;;;;;;;;;4987978;28;100070;-71
2023/08/15 03:59:07;;;;;;;6.82;2.40;;;;;;;;;;4986938;28;98356;-71
2023/08/15 04:01:34;;;;;;;7.50;2.72;;;;;;;;;;4990366;28;98567;-71
2023/08/15 04:04:01;;;;;;;12.00;2.55;;;;;;;;;;4986374;28;100706;-70
2023/08/15 04:06:30;;;;;;;7.40;2.42;;;;;;;;;;5006252;28;98204;-71
2023/08/15 04:08:56;;;;;;;4.50;2.72;;;;;;;;;;5009193;28;98779;-70
2023/08/15 04:11:23;;;;;;;8.52;2.67;;;;;;;;;;5003794;28;98279;-70
2023/08/15 04:13:49;;;;;;;6.57;2.08;;;;;;;;;;4987752;28;99492;-70
2023/08/15 04:16:16;;;;;;;3.60;2.42;;;;;;;;;;4987355;28;101064;-71
2023/08/15 04:18:43;;;;;;;5.18;2.40;;;;;;;;;;4987776;28;98190;-71
2023/08/15 04:21:11;;;;;;;11.35;3.88;;;;;;;;;;4987594;28;101096;-69
2023/08/15 04:23:37;;;;;;;9.30;3.08;;;;;;;;;;5003900;28;99427;-72
2023/08/15 04:26:04;;;;;;;9.85;2.80;;;;;;;;;;4994445;28;98333;-70
2023/08/15 04:28:30;;;;;;;2.75;2.42;;;;;;;;;;4987929;28;99340;-71
2023/08/15 04:30:57;;;;;;;9.02;2.92;;;;;;;;;;4992643;28;100980;-71
2023/08/15 04:33:24;;;;;;;9.93;2.50;;;;;;;;;;4975035;28;98638;-70
2023/08/15 04:35:50;;;;;;;7.55;2.40;;;;;;;;;;4991551;28;99098;-71
2023/08/15 04:38:17;;;;;;;8.13;2.70;;;;;;;;;;4990370;28;98281;-70
2023/08/15 04:40:44;;;;;;;6.75;3.42;;;;;;;;;;4990595;28;98455;-71
2023/08/15 04:43:11;;;;;;;6.63;2.60;;;;;;;;;;4990832;28;99249;-71
2023/08/15 04:45:40;;;;;;;7.10;2.78;;;;;;;;;;4992263;28;98622;-71
2023/08/15 04:48:10;;;;;;;10.77;3.03;;;;;;;;;;4993158;28;100705;-70
2023/08/15 04:50:37;;;;;;;7.32;3.35;;;;;;;;;;4990230;28;98844;-70
2023/08/15 04:53:05;;;;;;;6.57;2.65;;;;;;;;;;4995508;28;98277;-70
2023/08/15 04:55:32;;;;;;;8.23;3.05;;;;;;;;;;4989712;28;101583;-70
2023/08/15 04:57:58;;;;;;;4.30;2.55;;;;;;;;;;4990245;28;98298;-70
2023/08/15 05:00:25;;;;;;;13.57;3.35;;;;;;;;;;4989991;28;100814;-70
2023/08/15 05:02:51;;;;;;;7.50;2.92;;;;;;;;;;4990161;28;100837;-72
2023/08/15 05:05:18;;;;;;;6.32;3.15;;;;;;;;;;4990211;28;98806;-71
2023/08/15 05:07:45;;;;;;;10.88;2.95;;;;;;;;;;4990085;28;98564;-70
2023/08/15 05:10:12;;;;;;;8.80;2.63;;;;;;;;;;5003702;28;98922;-70
2023/08/15 05:12:41;;;;;;;10.75;3.08;;;;;;;;;;4990374;28;98511;-70
2023/08/15 05:15:09;;;;;;;5.00;2.58;;;;;;;;;;4994654;28;98365;-69
2023/08/15 05:17:35;;;;;;;8.73;2.50;;;;;;;;;;4990583;28;98249;-70
2023/08/15 05:20:03;;;;;;;9.48;2.53;;;;;;;;;;4989767;28;98459;-71
2023/08/15 05:22:31;;;;;;;13.52;3.03;;;;;;;;;;4990433;28;101840;-70
2023/08/15 05:24:58;;;;;;;6.68;2.40;;;;;;;;;;4989501;28;98275;-70
2023/08/15 05:27:25;;;;;;;9.13;2.80;;;;;;;;;;4990000;28;100768;-70
2023/08/15 05:29:52;;;;;;;11.27;2.90;;;;;;;;;;4991258;28;98609;-70
2023/08/15 05:32:18;;;;;;;8.40;2.58;;;;;;;;;;4989577;28;98300;-70
2023/08/15 05:34:45;;;;;;;12.25;3.97;;;;;;;;;;4991198;28;98729;-70
2023/08/15 05:37:11;;;;;;;10.48;3.38;;;;;;;;;;4991945;28;98412;-71
2023/08/15 05:39:38;;;;;;;8.95;2.75;;;;;;;;;;4989367;28;100890;-70
2023/08/15 05:42:04;;;;;;;9.43;2.72;;;;;;;;;;4990681;28;99113;-70
2023/08/15 05:44:31;;;;;;;8.07;3.15;;;;;;;;;;4987749;28;99077;-69
2023/08/15 05:46:57;;;;;;;13.05;2.65;;;;;;;;;;4970388;28;98854;-70
2023/08/15 05:49:24;;;;;;;6.13;2.72;;;;;;;;;;4970519;28;100325;-71
2023/08/15 05:51:52;;;;;;;11.65;3.28;;;;;;;;;;4972287;28;98255;-70
2023/08/15 05:54:19;;;;;;;10.68;3.30;;;;;;;;;;4970067;28;98698;-70
2023/08/15 05:56:45;;;;;;;9.70;2.30;;;;;;;;;;4985786;28;99678;-70
2023/08/15 05:59:12;;;;;;;9.15;3.45;;;;;;;;;;5009695;28;100049;-70
2023/08/15 06:01:38;;;;;;;10.32;3.58;;;;;;;;;;5008703;28;99274;-69
2023/08/15 06:04:05;;;;;;;11.05;3.25;;;;;;;;;;5002425;28;100064;-70
2023/08/15 06:06:32;;;;;;;9.13;2.60;;;;;;;;;;4981844;28;100202;-70
2023/08/15 06:08:59;;;;;;;12.20;3.17;;;;;;;;;;4978172;28;99858;-69
2023/08/15 06:11:26;;;;;;;11.57;3.50;;;;;;;;;;4987054;28;99110;-70
2023/08/15 06:13:53;;;;;;;8.63;2.92;;;;;;;;;;4988278;28;98733;-71
2023/08/15 06:16:19;;;;;;;13.38;3.70;;;;;;;;;;4989233;28;99221;-71
2023/08/15 06:18:46;;;;;;;8.93;3.05;;;;;;;;;;4983980;28;99462;-70
2023/08/15 06:21:12;;;;;;;10.30;3.10;;;;;;;;;;4977373;28;99186;-69
2023/08/15 06:23:38;;;;;;;9.95;3.25;;;;;;;;;;4985714;28;98284;-70
2023/08/15 06:26:05;;;;;;;11.93;2.78;;;;;;;;;;4975138;28;98600;-70
2023/08/15 06:28:31;;;;;;;10.48;3.25;;;;;;;;;;4979181;28;100358;-71
2023/08/15 06:30:58;;;;;;;10.43;2.90;;;;;;;;;;4973017;28;98315;-71
2023/08/15 06:33:24;;;;;;;7.57;2.30;;;;;;;;;;4973641;28;99610;-71
2023/08/15 06:35:52;;;;;;;10.45;3.15;;;;;;;;;;4971824;28;100001;-69
2023/08/15 06:38:19;;;;;;;15.25;3.00;;;;;;;;;;4970706;28;98789;-70
2023/08/15 06:40:45;;;;;;;6.38;2.47;;;;;;;;;;4975356;28;101317;-70
2023/08/15 06:43:12;;;;;;;10.63;2.92;;;;;;;;;;4969883;28;99719;-71
2023/08/15 06:45:38;;;;;;;7.13;2.72;;;;;;;;;;4976937;28;98484;-69
2023/08/15 06:48:05;;;;;;;13.40;2.45;;;;;;;;;;4971481;28;99038;-70
2023/08/15 06:50:32;;;;;;;8.82;2.72;;;;;;;;;;4968750;28;99996;-70
2023/08/15 06:52:59;;;;;;;9.32;3.15;;;;;;;;;;4972467;28;99879;-70
2023/08/15 06:55:26;;;;;;;15.75;3.28;;;;;;;;;;4978373;28;100032;-70
2023/08/15 06:57:53;;;;;;;11.80;3.25;;;;;;;;;;4976926;28;99591;-70
2023/08/15 07:00:19;;;;;;;12.93;2.28;;;;;;;;;;4978451;28;99783;-69
2023/08/15 07:02:46;;;;;;;8.20;2.50;;;;;;;;;;4978035;28;99536;-69
2023/08/15 07:05:12;;;;;;;12.98;2.92;;;;;;;;;;4984035;28;99357;-69
2023/08/15 07:07:39;;;;;;;10.15;2.30;;;;;;;;;;4977124;28;99503;-69
2023/08/15 07:10:06;;;;;;;5.13;2.47;;;;;;;;;;4984156;28;98892;-69
2023/08/15 07:12:33;;;;;;;8.57;3.30;;;;;;;;;;4972238;28;99721;-69
2023/08/15 07:15:00;;;;;;;8.35;3.13;;;;;;;;;;4981611;28;98799;-69
2023/08/15 07:17:27;;;;;;;11.07;2.47;;;;;;;;;;4988189;28;98157;-69
2023/08/15 07:19:54;;;;;;;6.45;2.58;;;;;;;;;;4988013;28;99620;-70
2023/08/15 07:22:20;;;;;;;9.23;2.72;;;;;;;;;;4985057;28;99976;-69
2023/08/15 07:24:47;;;;;;;6.95;2.47;;;;;;;;;;4992214;28;98296;-69
2023/08/15 07:27:14;;;;;;;7.93;2.13;;;;;;;;;;4977083;28;99112;-69
2023/08/15 07:29:40;;;;;;;5.95;2.10;;;;;;;;;;4974595;28;98215;-69
2023/08/15 07:32:08;;;;;;;9.10;2.30;;;;;;;;;;4984309;28;98539;-69
2023/08/15 07:34:37;;;;;;;9.02;2.35;;;;;;;;;;4988888;28;98975;-70
2023/08/15 07:37:04;;;;;;;10.10;2.30;;;;;;;;;;4971707;28;98105;-70
2023/08/15 07:39:30;;;;;;;4.63;2.30;;;;;;;;;;4984727;28;98766;-69
2023/08/15 07:41:56;;;;;;;6.35;2.55;;;;;;;;;;4987781;28;98929;-68
2023/08/15 07:44:25;;;;;;;10.45;2.60;;;;;;;;;;4985122;28;98673;-68
2023/08/15 07:46:52;;;;;;;7.90;2.63;;;;;;;;;;4973306;28;99011;-68
2023/08/15 07:49:18;;;;;;;8.13;2.60;;;;;;;;;;4968745;28;98181;-68
2023/08/15 07:51:45;;;;;;;11.57;2.00;;;;;;;;;;4985357;28;101040;-68
2023/08/15 07:54:11;;;;;;;9.77;2.85;;;;;;;;;;4983717;28;98966;-68
2023/08/15 07:56:38;;;;;;;9.82;3.15;;;;;;;;;;4987138;28;98257;-70
2023/08/15 07:59:04;;;;;;;12.02;2.92;;;;;;;;;;4988242;28;98690;-69
2023/08/15 08:01:30;;;;;;;6.50;2.42;;;;;;;;;;4980981;28;98902;-68
2023/08/15 08:03:57;;;;;;;13.45;2.50;;;;;;;;;;4969286;28;98232;-68
2023/08/15 08:06:23;;;;;;;7.50;2.30;;;;;;;;;;4970653;28;98757;-68
2023/08/15 08:09:05;;;;;;;9.07;3.03;;;;;;;;;;4980622;28;98260;-69
2023/08/15 08:11:32;;;;;;;7.65;3.25;;;;;;;;;;4980461;28;99337;-68
2023/08/15 08:13:58;;;;;;;6.00;2.88;;;;;;;;;;5003045;28;98940;-68
2023/08/15 08:16:25;;;;;;;8.38;2.80;;;;;;;;;;4977354;28;99288;-68
2023/08/15 08:18:51;;;;;;;9.02;2.35;;;;;;;;;;4990935;28;99562;-68
2023/08/15 08:21:18;;;;;;;9.45;3.53;;;;;;;;;;4983807;28;99877;-69
2023/08/15 08:23:44;;;;;;;7.85;2.30;;;;;;;;;;4979283;28;98247;-68
2023/08/15 08:26:11;;;;;;;6.47;2.45;;;;;;;;;;4974194;28;98567;-70
2023/08/15 08:28:37;;;;;;;7.65;1.80;;;;;;;;;;4978724;28;99001;-68
2023/08/15 08:31:04;;;;;;;6.82;2.75;;;;;;;;;;4975956;28;98649;-69
2023/08/15 08:33:30;;;;;;;5.78;2.10;;;;;;;;;;4979936;28;98947;-69
2023/08/15 08:35:57;;;;;;;3.42;2.17;;;;;;;;;;4975847;28;98343;-69
2023/08/15 08:38:23;;;;;;;10.60;2.30;;;;;;;;;;4979885;28;98473;-69
2023/08/15 08:40:54;;;;;;;3.78;1.67;;;;;;;;;;4987578;28;99062;-68
2023/08/15 08:43:20;;;;;;;3.50;1.55;;;;;;;;;;4975983;28;99835;-69
2023/08/15 08:45:49;;;;;;;5.95;1.58;;;;;;;;;;4968538;28;98574;-68
2023/08/15 08:48:16;;;;;;;5.22;1.65;;;;;;;;;;4969255;28;98996;-68
2023/08/15 08:50:44;;;;;;;3.25;1.80;;;;;;;;;;4988407;28;98228;-68
2023/08/15 08:53:10;;;;;;;5.65;3.10;;;;;;;;;;4988754;28;98972;-70
2023/08/15 08:55:38;;;;;;;8.45;2.30;;;;;;;;;;4983146;28;98428;-69
2023/08/15 08:58:05;;;;;;;11.75;2.22;;;;;;;;;;4978780;28;98676;-70
2023/08/15 09:00:32;;;;;;;5.93;2.30;;;;;;;;;;4977421;28;99974;-69
2023/08/15 09:02:58;;;;;;;4.75;2.38;;;;;;;;;;4980744;28;98192;-69
2023/08/15 09:05:26;;;;;;;4.63;2.72;;;;;;;;;;4984238;28;98681;-68
2023/08/15 09:07:53;;;;;;;6.93;2.47;;;;;;;;;;4989402;28;98853;-68
2023/08/15 09:10:23;;;;;;;6.10;3.05;;;;;;;;;;4975663;28;98301;-69
2023/08/15 09:12:49;;;;;;;6.32;2.55;;;;;;;;;;4981462;28;99013;-69
2023/08/15 09:15:16;;;;;;;3.22;2.33;;;;;;;;;;4990776;28;98219;-68
2023/08/15 09:17:42;;;;;;;6.78;3.05;;;;;;;;;;4972469;28;99281;-68
2023/08/15 09:20:12;;;;;;;6.53;2.83;;;;;;;;;;4978765;28;99965;-69
2023/08/15 09:22:40;;;;;;;8.25;3.28;;;;;;;;;;4984882;28;98324;-69
2023/08/15 09:25:07;;;;;;;6.78;3.05;;;;;;;;;;4989605;28;98518;-69
2023/08/15 09:27:34;;;;;;;6.95;2.67;;;;;;;;;;4991069;28;99100;-68
2023/08/15 09:30:08;;;;;;;7.47;3.42;;;;;;;;;;4988294;28;101548;-69
2023/08/15 09:32:34;;;;;;;9.13;3.20;;;;;;;;;;4977731;28;99213;-68
2023/08/15 09:35:01;;;;;;;5.35;2.58;;;;;;;;;;4994594;28;99032;-69
2023/08/15 09:37:27;;;;;;;6.70;3.15;;;;;;;;;;4987451;28;98757;-68
2023/08/15 09:39:54;;;;;;;5.82;3.03;;;;;;;;;;4988239;28;99043;-68
2023/08/15 09:42:21;;;;;;;6.05;2.50;;;;;;;;;;4990258;28;98318;-68
2023/08/15 09:44:49;;;;;;;4.80;3.05;;;;;;;;;;4989609;28;98596;-69
2023/08/15 09:47:17;;;;;;;9.93;3.25;;;;;;;;;;4990411;28;100004;-70
2023/08/15 09:49:45;;;;;;;8.88;3.33;;;;;;;;;;4989663;28;98241;-69
2023/08/15 09:52:12;;;;;;;11.73;4.07;;;;;;;;;;4988860;28;98556;-69
2023/08/15 09:54:40;;;;;;;6.00;2.92;;;;;;;;;;4995145;28;99180;-69
2023/08/15 09:57:06;;;;;;;5.13;3.03;;;;;;;;;;4991585;28;98520;-69
2023/08/15 09:59:33;;;;;;;6.15;2.97;;;;;;;;;;4989722;28;98990;-69
2023/08/15 10:02:00;;;;;;;5.88;2.40;;;;;;;;;;4990794;28;98383;-69
2023/08/15 10:04:28;;;;;;;5.18;2.75;;;;;;;;;;4989888;28;98663;-69
2023/08/15 10:06:55;;;;;;;8.52;2.65;;;;;;;;;;4985443;28;99132;-68
2023/08/15 10:09:24;;;;;;;5.88;2.28;;;;;;;;;;4979800;28;98273;-69
2023/08/15 10:11:50;;;;;;;3.60;2.55;;;;;;;;;;4990892;28;99099;-69
2023/08/15 10:14:18;;;;;;;7.18;2.25;;;;;;;;;;4982362;28;100144;-68
2023/08/15 10:16:44;;;;;;;6.78;3.30;;;;;;;;;;4981001;28;98289;-69
2023/08/15 10:19:15;;;;;;;4.22;2.30;;;;;;;;;;4986444;28;99720;-69
2023/08/15 10:21:47;;;;;;;6.22;2.42;;;;;;;;;;4984247;28;99141;-69
2023/08/15 10:24:14;;;;;;;4.28;2.55;;;;;;;;;;4980181;28;99753;-69
2023/08/15 10:26:44;;;;;;;9.48;3.22;;;;;;;;;;4969235;28;99940;-69
2023/08/15 10:29:12;;;;;;;4.10;2.60;;;;;;;;;;4980381;28;99263;-69
2023/08/15 10:31:39;;;;;;;6.88;3.85;;;;;;;;;;4979002;28;99612;-68
2023/08/15 10:34:10;;;;;;;4.90;2.50;;;;;;;;;;4980594;28;99432;-69
2023/08/15 10:36:39;;;;;;;7.97;2.83;;;;;;;;;;4989883;28;98309;-69
2023/08/15 10:39:09;;;;;;;4.40;3.10;;;;;;;;;;4992172;28;99488;-69
2023/08/15 10:41:36;;;;;;;5.05;2.83;;;;;;;;;;4985035;28;98204;-70
2023/08/15 10:44:07;;;;;;;3.03;2.47;;;;;;;;;;4986042;28;98768;-67
2023/08/15 10:46:35;;;;;;;3.75;2.03;;;;;;;;;;4987175;28;98858;-70
2023/08/15 10:49:08;;;;;;;7.40;2.63;;;;;;;;;;4983360;28;98389;-68
2023/08/15 10:51:36;;;;;;;4.72;2.75;;;;;;;;;;4989091;28;98371;-69
2023/08/15 10:54:04;;;;;;;7.00;3.05;;;;;;;;;;4988631;28;99167;-70
2023/08/15 10:56:31;;;;;;;4.57;2.97;;;;;;;;;;4987128;28;99362;-69
2023/08/15 10:58:58;;;;;;;6.82;2.92;;;;;;;;;;4972683;28;99495;-69
2023/08/15 11:01:26;;;;;;;4.60;2.63;;;;;;;;;;4973172;28;98958;-69
2023/08/15 11:03:54;;;;;;;5.85;2.60;;;;;;;;;;4972135;28;98544;-69
2023/08/15 11:06:20;;;;;;;8.13;2.72;;;;;;;;;;4972296;28;98945;-69
2023/08/15 11:08:48;;;;;;;4.03;2.80;;;;;;;;;;4977034;28;99706;-69
2023/08/15 11:11:16;;;;;;;5.07;3.00;;;;;;;;;;4968850;28;98689;-69
2023/08/15 11:13:44;;;;;;;8.55;3.03;;;;;;;;;;4969203;28;98753;-69
2023/08/15 11:16:13;;;;;;;11.80;2.58;;;;;;;;;;4975825;28;98526;-70
2023/08/15 11:18:41;;;;;;;7.28;2.45;;;;;;;;;;4969553;28;98125;-70
2023/08/15 11:21:09;;;;;;;9.75;2.53;;;;;;;;;;4968839;28;99184;-69
2023/08/15 11:23:36;;;;;;;9.40;2.70;;;;;;;;;;4980518;28;98966;-69
2023/08/15 11:26:06;;;;;;;11.23;2.53;;;;;;;;;;4989565;28;99015;-69
2023/08/15 11:28:33;;;;;;;5.88;2.22;;;;;;;;;;4981558;28;98207;-69
2023/08/15 11:31:01;;;;;;;7.45;2.05;;;;;;;;;;4977069;28;99371;-69
2023/08/15 11:33:48;;;;;;;3.65;2.15;;;;;;;;;;4971500;28;99246;-69
2023/08/15 11:36:14;;;;;;;7.63;2.28;;;;;;;;;;4967891;28;98269;-70
2023/08/15 11:38:41;;;;;;;7.47;2.15;;;;;;;;;;4984552;28;99454;-69
2023/08/15 11:41:07;;;;;;;5.75;2.03;;;;;;;;;;4976434;28;99911;-69
2023/08/15 11:43:34;;;;;;;5.78;2.97;;;;;;;;;;4973478;28;98362;-69
2023/08/15 11:46:01;;;;;;;7.82;1.90;;;;;;;;;;4971686;28;99410;-70
2023/08/15 11:48:29;;;;;;;4.18;2.15;;;;;;;;;;4974124;28;98290;-70
2023/08/15 11:50:55;;;;;;;9.77;2.45;;;;;;;;;;4968967;28;99717;-71
2023/08/15 11:53:22;;;;;;;2.67;1.48;;;;;;;;;;4969114;28;98987;-69
2023/08/15 11:55:50;;;;;;;9.63;2.67;;;;;;;;;;4971094;28;99914;-70
2023/08/15 11:58:20;;;;;;;5.75;2.67;;;;;;;;;;4970908;28;99418;-69
2023/08/15 12:00:46;;;;;;;4.22;2.10;;;;;;;;;;4973967;28;99802;-69
2023/08/15 12:03:13;;;;;;;4.95;2.00;;;;;;;;;;4973852;28;99414;-69
2023/08/15 12:05:43;;;;;;;13.57;2.40;;;;;;;;;;4980104;28;98534;-69
2023/08/15 12:08:09;;;;;;;5.20;1.90;;;;;;;;;;4973267;28;98448;-69
2023/08/15 12:10:36;;;;;;;5.43;1.83;;;;;;;;;;4971167;28;98551;-70
2023/08/15 12:13:05;;;;;;;4.82;2.10;;;;;;;;;;4969464;28;100177;-69
2023/08/15 12:15:31;;;;;;;2.85;1.80;;;;;;;;;;4972975;28;99330;-69
2023/08/15 12:17:58;;;;;;;5.20;2.08;;;;;;;;;;4971441;28;98682;-68
2023/08/15 12:20:24;;;;;;;7.38;2.15;;;;;;;;;;4967100;28;99364;-68
2023/08/15 12:22:51;;;;;;;6.07;1.63;;;;;;;;;;4972833;28;98228;-69
2023/08/15 12:25:17;;;;;;;3.58;1.65;;;;;;;;;;4972308;28;99444;-70
2023/08/15 12:27:46;;;;;;;2.33;1.65;;;;;;;;;;4976783;28;100029;-69
2023/08/15 12:30:13;;;;;;;4.57;2.08;;;;;;;;;;4972153;28;99625;-69
2023/08/15 12:32:41;;;;;;;2.08;1.55;;;;;;;;;;4969584;28;99852;-70
2023/08/15 12:35:08;;;;;;;4.18;1.80;;;;;;;;;;4973410;28;99091;-70
2023/08/15 12:37:35;;;;;;;6.00;1.63;;;;;;;;;;4970741;27;100777;-68
2023/08/15 12:40:01;;;;;;;4.15;1.70;;;;;;;;;;4969034;28;98994;-69
2023/08/15 12:42:28;;;;;;;7.63;1.90;;;;;;;;;;4973008;28;98645;-70
2023/08/15 12:44:54;;;;;;;3.33;1.65;;;;;;;;;;4970599;28;99411;-69
2023/08/15 12:47:21;;;;;;;7.47;2.47;;;;;;;;;;4971373;28;99893;-70
2023/08/15 12:49:48;;;;;;;8.93;4.53;;;;;;;;;;4980239;28;99032;-70
2023/08/15 12:52:14;;;;;;;8.30;5.82;;;;;;;;;;4974683;28;98977;-69
2023/08/15 12:54:41;;;;;;;2.80;1.80;;;;;;;;;;4973783;28;98692;-70
2023/08/15 12:57:07;;;;;;;5.20;2.53;;;;;;;;;;4976271;28;99354;-70
2023/08/15 12:59:34;;;;;;;5.90;2.63;;;;;;;;;;4970396;28;100877;-70
2023/08/15 13:02:00;;;;;;;1.52;1.40;;;;;;;;;;4974244;28;99130;-69
2023/08/15 13:04:26;;;;;;;4.20;2.95;;;;;;;;;;4982489;28;98668;-70
2023/08/15 13:06:53;;;;;;;0.75;0.75;;;;;;;;;;4990283;28;98997;-70
2023/08/15 13:09:19;;;;;;;4.47;2.17;;;;;;;;;;4972782;28;98894;-71
2023/08/15 13:11:46;;;;;;;1.83;1.38;;;;;;;;;;4975919;28;98468;-70
2023/08/15 13:14:12;;;;;;;1.88;1.10;;;;;;;;;;4982684;28;98530;-70
2023/08/15 13:16:39;;;;;;;1.02;0.98;;;;;;;;;;4973888;28;98502;-70
2023/08/15 13:19:06;;;;;;;1.55;1.13;;;;;;;;;;4993554;28;100128;-70
2023/08/15 13:21:33;;;;;;;0.80;0.80;;;;;;;;;;4977149;28;98189;-70
2023/08/15 13:23:59;;;;;;;0.93;0.90;;;;;;;;;;4980613;28;99024;-71
2023/08/15 13:26:26;;;;;;;1.25;0.82;;;;;;;;;;4986577;28;100425;-70
2023/08/15 13:28:52;;;;;;;1.08;1.05;;;;;;;;;;4990847;28;98196;-70
2023/08/15 13:31:18;;;;;;;1.58;1.10;;;;;;;;;;4989795;28;99421;-70
2023/08/15 13:33:45;;;;;;;1.00;0.98;;;;;;;;;;4994401;28;98977;-71
2023/08/15 13:36:12;;;;;;;1.50;1.40;;;;;;;;;;4976449;28;99185;-70
2023/08/15 13:38:38;;;;;;;2.35;1.10;;;;;;;;;;4972204;28;99976;-70
2023/08/15 13:41:05;;;;;;;4.13;1.20;;;;;;;;;;4971833;28;100069;-70
2023/08/15 13:43:33;;;;;;;0.93;0.90;;;;;;;;;;4973843;28;98641;-70
2023/08/15 13:46:03;;;;;;;1.08;0.98;;;;;;;;;;4969869;28;99810;-69
2023/08/15 13:48:30;;;;;;;3.03;1.25;;;;;;;;;;4972144;28;99405;-71
2023/08/15 13:50:56;;;;;;;2.95;1.17;;;;;;;;;;4974015;28;99391;-68
2023/08/15 13:53:22;;;;;;;0.90;0.90;;;;;;;;;;4976805;28;99966;-69
2023/08/15 13:55:49;;;;;;;1.80;0.90;;;;;;;;;;4978572;28;98108;-70
2023/08/15 13:58:15;;;;;;;1.33;0.85;;;;;;;;;;4981470;28;98897;-70
2023/08/15 14:00:42;;;;;;;1.20;1.05;;;;;;;;;;4971866;28;99499;-70
2023/08/15 14:03:08;;;;;;;1.25;0.90;;;;;;;;;;4970597;28;98562;-68
2023/08/15 14:05:35;;;;;;;0.82;0.82;;;;;;;;;;4970327;28;98950;-69
2023/08/15 14:08:02;;;;;;;1.38;1.13;;;;;;;;;;4976009;28;99279;-68
2023/08/15 14:10:29;;;;;;;1.65;0.90;;;;;;;;;;4972455;28;99245;-69
2023/08/15 14:12:56;;;;;;;1.48;1.00;;;;;;;;;;4972208;28;98861;-69
2023/08/15 14:15:23;;;;;;;2.03;1.10;;;;;;;;;;4977117;28;98210;-69
2023/08/15 14:17:49;;;;;;;1.63;1.00;;;;;;;;;;4969934;28;98955;-68
2023/08/15 14:20:15;;;;;;;2.00;1.10;;;;;;;;;;4970779;28;98817;-69
2023/08/15 14:22:42;;;;;;;1.40;0.90;;;;;;;;;;4976532;28;99541;-69
2023/08/15 14:25:08;;;;;;;4.35;1.05;;;;;;;;;;4975574;28;98919;-69
2023/08/15 14:27:35;;;;;;;0.90;0.90;;;;;;;;;;4975833;28;99939;-70
2023/08/15 14:30:01;;;;;;;3.83;1.17;;;;;;;;;;4972276;28;99619;-69
2023/08/15 14:32:28;;;;;;;1.23;1.02;;;;;;;;;;4968258;28;100741;-69
2023/08/15 14:34:54;;;;;;;2.53;1.00;;;;;;;;;;4970711;28;98749;-69
2023/08/15 14:37:21;;;;;;;2.13;1.08;;;;;;;;;;4977571;28;98674;-71